createdAt,value
2017-06-08T00:02:13.894Z,9.50
2017-06-08T00:04:46.839Z,9.50
2017-06-08T00:07:20.399Z,9.30
2017-06-08T00:09:53.035Z,9.30
2017-06-08T00:12:26.080Z,9.20
2017-06-08T00:14:59.149Z,9.20
2017-06-08T00:17:31.980Z,9.20
2017-06-08T00:20:05.441Z,9.10
2017-06-08T00:22:38.130Z,9.00
2017-06-08T00:25:11.165Z,8.80
2017-06-08T00:27:43.363Z,8.70
2017-06-08T00:30:16.486Z,8.60
2017-06-08T00:32:49.026Z,8.60
2017-06-08T00:35:21.637Z,8.60
2017-06-08T00:37:53.983Z,8.60
2017-06-08T00:40:26.291Z,8.50
2017-06-08T00:43:00.332Z,8.60
2017-06-08T00:45:32.970Z,8.60
2017-06-08T00:48:06.404Z,8.70
2017-06-08T00:50:39.909Z,8.60
2017-06-08T00:53:12.595Z,8.60
2017-06-08T00:55:45.743Z,8.50
2017-06-08T00:58:18.523Z,8.60
2017-06-08T01:00:51.497Z,8.50
2017-06-08T01:03:24.372Z,8.50
2017-06-08T01:05:57.840Z,8.60
2017-06-08T01:08:31.320Z,8.50
2017-06-08T01:11:04.091Z,8.60
2017-06-08T01:13:36.924Z,8.60
2017-06-08T01:16:09.865Z,8.50
2017-06-08T01:18:42.616Z,8.40
2017-06-08T01:21:16.200Z,8.20
2017-06-08T01:23:49.051Z,8.20
2017-06-08T01:26:22.008Z,8.20
2017-06-08T01:28:54.744Z,8.30
2017-06-08T01:31:27.620Z,8.20
2017-06-08T01:34:00.809Z,8.10
2017-06-08T01:36:34.155Z,8.10
2017-06-08T01:39:06.977Z,8.00
2017-06-08T01:41:39.846Z,7.90
2017-06-08T01:44:13.306Z,7.80
2017-06-08T01:46:46.160Z,7.70
2017-06-08T01:49:19.567Z,7.60
2017-06-08T01:51:54.536Z,7.60
2017-06-08T01:54:27.787Z,7.60
2017-06-08T01:57:00.502Z,7.60
2017-06-08T01:59:33.135Z,7.70
2017-06-08T02:02:07.186Z,7.70
2017-06-08T02:04:40.403Z,7.70
2017-06-08T02:07:13.935Z,7.80
2017-06-08T02:09:46.654Z,7.80
2017-06-08T02:12:19.458Z,7.80
2017-06-08T02:14:52.971Z,7.80
2017-06-08T02:17:26.520Z,7.80
2017-06-08T02:19:59.873Z,7.80
2017-06-08T02:22:33.308Z,7.80
2017-06-08T02:25:06.066Z,7.70
2017-06-08T02:27:39.166Z,7.70
2017-06-08T02:30:11.959Z,7.80
2017-06-08T02:32:45.252Z,7.80
2017-06-08T02:35:18.362Z,7.90
2017-06-08T02:37:51.293Z,7.90
2017-06-08T02:40:23.919Z,7.90
2017-06-08T02:42:57.221Z,7.80
2017-06-08T02:45:30.303Z,7.80
2017-06-08T02:48:03.402Z,7.80
2017-06-08T02:50:36.734Z,7.90
2017-06-08T02:53:11.024Z,7.80
2017-06-08T02:55:43.824Z,7.80
2017-06-08T02:58:17.263Z,7.90
2017-06-08T03:00:50.156Z,7.80
2017-06-08T03:03:22.843Z,7.90
2017-06-08T03:05:55.612Z,7.90
2017-06-08T03:08:28.641Z,8.00
2017-06-08T03:11:00.919Z,8.10
2017-06-08T03:13:33.252Z,8.20
2017-06-08T03:16:05.531Z,8.20
2017-06-08T03:18:38.063Z,8.30
2017-06-08T03:21:10.520Z,8.30
2017-06-08T03:23:43.401Z,8.20
2017-06-08T03:26:16.330Z,8.20
2017-06-08T03:28:49.399Z,8.20
2017-06-08T03:31:22.712Z,8.20
2017-06-08T03:33:55.744Z,8.10
2017-06-08T03:36:28.480Z,8.20
2017-06-08T03:39:01.948Z,8.30
2017-06-08T03:41:34.213Z,8.30
2017-06-08T03:44:07.059Z,8.30
2017-06-08T03:46:40.062Z,8.40
2017-06-08T03:49:12.698Z,8.40
2017-06-08T03:51:45.187Z,8.40
2017-06-08T03:54:17.698Z,8.50
2017-06-08T03:56:50.271Z,8.50
2017-06-08T03:59:22.882Z,8.50
2017-06-08T04:01:56.190Z,8.50
2017-06-08T04:04:29.294Z,8.60
2017-06-08T04:07:01.838Z,8.70
2017-06-08T04:09:36.067Z,8.80
2017-06-08T04:12:08.947Z,8.90
2017-06-08T04:14:41.826Z,8.90
2017-06-08T04:17:16.124Z,8.90
2017-06-08T04:19:48.572Z,9.00
2017-06-08T04:22:20.956Z,9.00
2017-06-08T04:24:53.760Z,9.00
2017-06-08T04:27:26.519Z,9.20
2017-06-08T04:29:59.936Z,9.30
2017-06-08T04:32:33.160Z,9.30
2017-06-08T04:35:05.441Z,9.50
2017-06-08T04:37:38.340Z,9.60
2017-06-08T04:40:10.683Z,9.90
2017-06-08T04:42:42.926Z,11.30
2017-06-08T04:45:15.336Z,13.00
2017-06-08T04:47:48.216Z,14.50
2017-06-08T04:50:20.692Z,16.20
2017-06-08T04:52:53.003Z,18.00
2017-06-08T04:55:26.429Z,18.80
2017-06-08T04:57:59.525Z,20.10
2017-06-08T05:00:32.632Z,20.70
2017-06-08T05:03:06.012Z,22.30
2017-06-08T05:05:38.354Z,22.80
2017-06-08T05:08:10.628Z,22.40
2017-06-08T05:10:42.963Z,20.60
2017-06-08T05:13:15.326Z,17.70
2017-06-08T05:15:48.353Z,16.60
2017-06-08T05:18:20.725Z,16.50
2017-06-08T05:20:53.612Z,16.30
2017-06-08T05:23:26.289Z,15.30
2017-06-08T05:25:58.794Z,14.40
2017-06-08T05:28:31.485Z,14.00
2017-06-08T05:31:04.104Z,13.80
2017-06-08T05:33:36.425Z,14.00
2017-06-08T05:36:09.064Z,14.80
2017-06-08T05:38:41.767Z,15.20
2017-06-08T05:41:14.796Z,14.90
2017-06-08T05:43:47.211Z,14.50
2017-06-08T05:46:20.448Z,14.30
2017-06-08T05:48:53.372Z,14.30
2017-06-08T05:51:26.173Z,14.80
2017-06-08T05:53:58.423Z,16.00
2017-06-08T05:56:31.426Z,18.60
2017-06-08T05:59:04.291Z,19.50
2017-06-08T06:01:36.903Z,19.80
2017-06-08T06:04:09.301Z,19.70
2017-06-08T06:06:41.899Z,18.60
2017-06-08T06:09:14.832Z,19.40
2017-06-08T06:11:47.512Z,20.60
2017-06-08T06:14:19.840Z,21.40
2017-06-08T06:16:52.143Z,23.20
2017-06-08T06:19:24.852Z,22.30
2017-06-08T06:21:57.411Z,22.70
2017-06-08T06:24:29.719Z,22.80
2017-06-08T06:27:02.379Z,22.90
2017-06-08T06:29:34.748Z,24.50
2017-06-08T06:32:07.691Z,24.40
2017-06-08T06:34:40.140Z,24.30
2017-06-08T06:37:12.468Z,25.30
2017-06-08T06:39:45.614Z,25.30
2017-06-08T06:42:18.257Z,27.30
2017-06-08T06:44:50.790Z,26.70
2017-06-08T06:47:23.082Z,24.70
2017-06-08T06:49:55.920Z,24.40
2017-06-08T06:52:28.628Z,25.10
2017-06-08T06:55:01.031Z,25.50
2017-06-08T06:57:34.899Z,24.00
2017-06-08T07:00:07.751Z,24.50
2017-06-08T07:02:40.213Z,24.60
2017-06-08T07:05:12.475Z,23.80
2017-06-08T07:07:45.406Z,23.90
2017-06-08T07:10:21.241Z,25.00
2017-06-08T07:12:53.751Z,24.40
2017-06-08T07:15:26.435Z,24.20
2017-06-08T07:17:58.728Z,24.70
2017-06-08T07:20:31.250Z,24.00
2017-06-08T07:23:03.590Z,24.30
2017-06-08T07:25:35.908Z,24.50
2017-06-08T07:28:09.524Z,25.30
2017-06-08T07:30:43.020Z,25.80
2017-06-08T07:33:16.447Z,26.00
2017-06-08T07:35:49.149Z,26.90
2017-06-08T07:38:21.611Z,27.60
2017-06-08T07:40:54.247Z,27.80
2017-06-08T07:43:26.723Z,26.50
2017-06-08T07:45:59.008Z,26.60
2017-06-08T07:48:31.610Z,26.60
2017-06-08T07:51:03.963Z,27.40
2017-06-08T07:53:36.612Z,27.50
2017-06-08T07:56:10.012Z,27.60
2017-06-08T07:58:42.632Z,27.50
2017-06-08T08:01:25.347Z,28.20
2017-06-08T08:04:00.403Z,27.60
2017-06-08T08:06:32.820Z,28.20
2017-06-08T08:09:05.834Z,27.00
2017-06-08T08:11:39.758Z,26.80
2017-06-08T08:14:12.382Z,28.60
2017-06-08T08:16:45.338Z,28.90
2017-06-08T08:19:17.807Z,26.90
2017-06-08T08:21:50.120Z,27.70
2017-06-08T08:24:22.591Z,28.60
2017-06-08T08:26:54.920Z,28.60
2017-06-08T08:29:28.036Z,29.30
2017-06-08T08:32:01.398Z,30.90
2017-06-08T08:34:33.786Z,30.80
2017-06-08T08:37:06.869Z,32.30
2017-06-08T08:39:39.556Z,33.20
2017-06-08T08:42:12.022Z,28.50
2017-06-08T08:44:44.513Z,24.80
2017-06-08T08:47:17.951Z,24.30
2017-06-08T08:49:50.634Z,26.90
2017-06-08T08:52:23.309Z,29.50
2017-06-08T08:54:56.040Z,29.60
2017-06-08T08:57:28.810Z,29.80
2017-06-08T09:00:02.008Z,30.40
2017-06-08T09:02:35.298Z,29.90
2017-06-08T09:05:07.586Z,30.10
2017-06-08T09:07:40.930Z,30.10
2017-06-08T09:10:13.228Z,29.90
2017-06-08T09:12:46.077Z,30.00
2017-06-08T09:15:18.708Z,26.80
2017-06-08T09:17:52.160Z,26.00
2017-06-08T09:20:24.805Z,25.40
2017-06-08T09:22:57.529Z,26.70
2017-06-08T09:25:30.595Z,27.70
2017-06-08T09:28:02.997Z,29.20
2017-06-08T09:30:35.576Z,28.90
2017-06-08T09:33:08.412Z,28.70
2017-06-08T09:35:41.134Z,28.10
2017-06-08T09:38:13.604Z,28.50
2017-06-08T09:40:46.206Z,27.30
2017-06-08T09:43:18.587Z,26.10
2017-06-08T09:45:52.819Z,26.40
2017-06-08T09:49:49.121Z,28.40
2017-06-08T09:52:21.759Z,26.30
2017-06-08T09:54:54.211Z,24.40
2017-06-08T09:57:26.701Z,23.50
2017-06-08T09:59:59.481Z,23.90
2017-06-08T10:02:34.273Z,23.80
2017-06-08T10:05:07.345Z,22.80
2017-06-08T10:07:39.798Z,22.80
2017-06-08T10:10:12.145Z,22.60
2017-06-08T10:12:45.743Z,21.30
2017-06-08T10:15:18.717Z,21.10
2017-06-08T10:17:51.712Z,20.50
2017-06-08T10:20:24.342Z,20.10
2017-06-08T10:22:56.823Z,20.10
2017-06-08T10:25:29.481Z,20.20
2017-06-08T10:28:01.811Z,20.20
2017-06-08T10:30:34.295Z,20.20
2017-06-08T10:33:06.956Z,20.60
2017-06-08T10:35:39.860Z,20.70
2017-06-08T10:38:12.271Z,21.30
2017-06-08T10:43:27.472Z,20.00
2017-06-08T10:46:00.872Z,20.40
2017-06-08T10:48:33.620Z,21.10
2017-06-08T10:51:06.268Z,21.60
2017-06-08T10:53:39.183Z,21.80
2017-06-08T10:56:12.561Z,21.80
2017-06-08T10:58:45.055Z,21.20
2017-06-08T11:01:17.686Z,21.10
2017-06-08T11:03:51.048Z,21.00
2017-06-08T11:06:24.024Z,20.60
2017-06-08T11:08:56.408Z,21.10
2017-06-08T11:11:28.890Z,21.20
2017-06-08T11:14:01.263Z,21.50
2017-06-08T11:16:35.508Z,21.30
2017-06-08T11:19:08.440Z,21.60
2017-06-08T11:21:41.167Z,21.60
2017-06-08T11:24:13.519Z,21.80
2017-06-08T11:26:46.004Z,21.90
2017-06-08T11:29:19.271Z,21.20
2017-06-08T11:31:51.710Z,21.80
2017-06-08T11:34:24.287Z,21.60
2017-06-08T11:36:56.792Z,21.80
2017-06-08T11:39:29.311Z,21.80
2017-06-08T11:42:01.709Z,21.70
2017-06-08T11:44:34.820Z,21.40
2017-06-08T11:47:07.095Z,22.20
2017-06-08T11:49:39.564Z,21.90
2017-06-08T11:52:12.123Z,22.20
2017-06-08T11:54:44.940Z,22.30
2017-06-08T11:57:17.538Z,21.50
2017-06-08T11:59:49.877Z,21.80
2017-06-08T12:02:22.355Z,22.30
2017-06-08T12:04:55.294Z,22.10
2017-06-08T12:07:28.240Z,21.90
2017-06-08T12:10:00.628Z,21.40
2017-06-08T12:12:32.980Z,21.50
2017-06-08T12:15:05.578Z,21.20
2017-06-08T12:17:38.103Z,21.10
2017-06-08T12:20:10.727Z,21.20
2017-06-08T12:22:43.318Z,21.50
2017-06-08T12:25:16.025Z,22.10
2017-06-08T12:27:48.702Z,22.30
2017-06-08T12:30:23.650Z,21.90
2017-06-08T12:32:56.033Z,21.60
2017-06-08T12:35:28.619Z,21.50
2017-06-08T12:38:01.697Z,22.00
2017-06-08T12:40:34.032Z,22.30
2017-06-08T12:43:06.375Z,22.50
2017-06-08T12:45:39.115Z,22.60
2017-06-08T12:48:11.606Z,21.90
2017-06-08T12:50:45.200Z,21.70
2017-06-08T12:53:17.700Z,21.50
2017-06-08T12:55:53.419Z,21.70
2017-06-08T12:58:26.591Z,21.90
2017-06-08T13:01:00.320Z,22.00
2017-06-08T13:03:33.519Z,21.90
2017-06-08T13:06:06.384Z,21.80
2017-06-08T13:08:39.143Z,22.10
2017-06-08T13:11:12.174Z,22.00
2017-06-08T13:13:44.876Z,22.00
2017-06-08T13:16:17.331Z,22.40
2017-06-08T13:18:49.882Z,22.60
2017-06-08T13:21:22.629Z,22.80
2017-06-08T13:23:54.982Z,22.40
2017-06-08T13:26:27.718Z,22.20
2017-06-08T13:29:00.449Z,22.20
2017-06-08T13:31:32.982Z,22.50
2017-06-08T13:34:06.213Z,21.80
2017-06-08T13:36:39.312Z,21.90
2017-06-08T13:39:11.741Z,22.30
2017-06-08T13:41:45.187Z,22.20
2017-06-08T13:44:18.893Z,22.00
2017-06-08T13:46:52.045Z,21.90
2017-06-08T13:49:24.584Z,22.10
2017-06-08T13:51:57.222Z,22.00
2017-06-08T13:54:30.748Z,21.90
2017-06-08T13:57:03.956Z,22.20
2017-06-08T13:59:36.570Z,22.00
2017-06-08T14:02:09.089Z,21.80
2017-06-08T14:04:41.639Z,22.20
2017-06-08T14:07:15.019Z,22.20
2017-06-08T14:09:48.000Z,22.10
2017-06-08T14:12:21.031Z,22.00
2017-06-08T14:14:53.558Z,22.00
2017-06-08T14:17:26.012Z,21.90
2017-06-08T14:19:58.436Z,21.80
2017-06-08T14:22:37.754Z,22.20
2017-06-08T14:25:10.294Z,22.40
2017-06-08T14:27:43.493Z,22.30
2017-06-08T14:30:16.199Z,22.30
2017-06-08T14:32:48.956Z,22.40
2017-06-08T14:35:22.714Z,22.40
2017-06-08T14:37:54.370Z,22.30
2017-06-08T14:40:27.496Z,22.20
2017-06-08T14:43:00.099Z,22.30
2017-06-08T14:45:32.666Z,22.10
2017-06-08T14:48:05.816Z,22.30
2017-06-08T14:50:38.854Z,22.50
2017-06-08T14:53:11.985Z,22.40
2017-06-08T14:55:44.955Z,22.70
2017-06-08T14:58:19.011Z,22.90
2017-06-08T15:00:51.681Z,22.80
2017-06-08T15:03:26.387Z,22.80
2017-06-08T15:06:00.869Z,22.60
2017-06-08T15:08:34.819Z,22.80
2017-06-08T15:11:07.224Z,22.60
2017-06-08T15:13:40.386Z,22.50
2017-06-08T15:16:13.841Z,22.60
2017-06-08T15:18:46.414Z,22.60
2017-06-08T15:21:19.761Z,22.70
2017-06-08T15:23:52.360Z,22.80
2017-06-08T15:26:24.739Z,22.40
2017-06-08T15:28:57.506Z,22.40
2017-06-08T15:31:30.126Z,22.20
2017-06-08T15:34:03.040Z,22.40
2017-06-08T15:36:35.860Z,22.50
2017-06-08T15:39:09.370Z,22.40
2017-06-08T15:41:42.113Z,22.10
2017-06-08T15:44:14.882Z,22.20
2017-06-08T15:46:47.643Z,22.30
2017-06-08T15:49:20.419Z,22.40
2017-06-08T15:51:52.835Z,22.50
2017-06-08T15:54:25.459Z,22.10
2017-06-08T15:56:58.144Z,22.10
2017-06-08T15:59:30.776Z,22.30
2017-06-08T16:02:03.644Z,22.50
2017-06-08T16:04:36.783Z,22.40
2017-06-08T16:07:10.091Z,22.40
2017-06-08T16:09:43.541Z,22.30
2017-06-08T16:12:17.954Z,22.30
2017-06-08T16:14:51.519Z,22.40
2017-06-08T16:17:24.360Z,22.40
2017-06-08T16:19:57.622Z,22.40
2017-06-08T16:22:30.814Z,22.50
2017-06-08T16:25:05.257Z,22.50
2017-06-08T16:27:38.126Z,22.30
2017-06-08T16:30:12.829Z,22.40
2017-06-08T16:32:45.743Z,22.20
2017-06-08T16:35:18.777Z,22.30
2017-06-08T16:37:51.733Z,22.30
2017-06-08T16:40:25.311Z,22.30
2017-06-08T16:42:58.082Z,22.40
2017-06-08T16:45:30.461Z,22.30
2017-06-08T16:48:03.842Z,22.30
2017-06-08T16:50:36.897Z,22.30
2017-06-08T16:53:10.095Z,22.20
2017-06-08T16:55:42.743Z,22.00
2017-06-08T16:58:15.508Z,22.00
2017-06-08T17:00:48.029Z,22.00
2017-06-08T17:03:20.879Z,22.00
2017-06-08T17:05:53.664Z,22.10
2017-06-08T17:08:26.563Z,22.20
2017-06-08T17:10:59.260Z,22.10
2017-06-08T17:13:32.212Z,22.10
2017-06-08T17:16:04.986Z,22.00
2017-06-08T17:18:37.505Z,22.00
2017-06-08T17:21:10.207Z,22.00
2017-06-08T17:23:43.979Z,21.90
2017-06-08T17:26:18.830Z,21.70
2017-06-08T17:28:53.503Z,21.70
2017-06-08T17:31:26.052Z,21.50
2017-06-08T17:34:00.437Z,21.30
2017-06-08T17:36:33.760Z,21.30
2017-06-08T17:39:07.849Z,21.20
2017-06-08T17:41:40.480Z,21.10
2017-06-08T17:44:12.844Z,21.00
2017-06-08T17:46:45.548Z,21.10
2017-06-08T17:49:19.479Z,20.90
2017-06-08T17:51:52.347Z,20.80
2017-06-08T17:54:26.437Z,20.70
2017-06-08T17:56:59.107Z,20.60
2017-06-08T17:59:31.797Z,20.30
2017-06-08T18:02:05.077Z,20.00
2017-06-08T18:04:39.448Z,19.40
2017-06-08T18:07:12.105Z,19.40
2017-06-08T18:09:45.261Z,19.20
2017-06-08T18:12:18.392Z,19.00
2017-06-08T18:14:51.070Z,18.80
2017-06-08T18:17:23.550Z,18.50
2017-06-08T18:19:58.126Z,18.40
2017-06-08T18:22:30.836Z,18.40
2017-06-08T18:25:03.642Z,18.10
2017-06-08T18:27:37.024Z,18.00
2017-06-08T18:30:11.995Z,17.70
2017-06-08T18:32:48.222Z,17.60
2017-06-08T18:35:20.929Z,17.40
2017-06-08T18:37:53.601Z,17.30
2017-06-08T18:40:27.531Z,17.10
2017-06-08T18:43:00.805Z,17.00
2017-06-08T18:45:33.321Z,16.90
2017-06-08T18:48:06.209Z,17.00
2017-06-08T18:50:39.158Z,16.80
2017-06-08T18:53:13.347Z,16.60
2017-06-08T18:55:46.956Z,16.50
2017-06-08T18:58:20.551Z,16.40
2017-06-08T19:00:54.103Z,16.30
2017-06-08T19:03:27.574Z,16.30
2017-06-08T19:06:00.693Z,16.10
2017-06-08T19:08:33.390Z,16.10
2017-06-08T19:11:06.506Z,16.10
2017-06-08T19:13:39.854Z,15.90
2017-06-08T19:16:12.446Z,15.90
2017-06-08T19:18:45.526Z,15.80
2017-06-08T19:21:18.160Z,15.70
2017-06-08T19:23:50.651Z,15.60
2017-06-08T19:26:23.496Z,15.50
2017-06-08T19:28:56.254Z,15.50
2017-06-08T19:31:28.646Z,15.40
2017-06-08T19:34:01.607Z,15.30
2017-06-08T19:36:34.637Z,15.30
2017-06-08T19:39:07.195Z,15.20
2017-06-08T19:41:40.050Z,15.10
2017-06-08T19:44:12.641Z,15.10
2017-06-08T19:46:45.120Z,15.00
2017-06-08T19:49:17.511Z,15.10
2017-06-08T19:51:50.153Z,15.00
2017-06-08T19:54:24.404Z,14.90
2017-06-08T19:56:56.865Z,14.80
2017-06-08T19:59:29.302Z,14.70
2017-06-08T20:02:02.085Z,14.60
2017-06-08T20:04:35.783Z,14.50
2017-06-08T20:07:09.850Z,14.50
2017-06-08T20:09:44.363Z,14.40
2017-06-08T20:12:18.475Z,14.20
2017-06-08T20:14:51.204Z,14.30
2017-06-08T20:17:23.573Z,14.20
2017-06-08T20:19:56.285Z,14.10
2017-06-08T20:22:29.258Z,14.10
2017-06-08T20:25:02.618Z,14.00
2017-06-08T20:27:35.168Z,13.90
2017-06-08T20:30:07.590Z,14.00
2017-06-08T20:32:40.676Z,14.20
2017-06-08T20:35:13.536Z,14.20
2017-06-08T20:37:46.439Z,14.00
2017-06-08T20:40:19.563Z,14.00
2017-06-08T20:42:52.999Z,14.00
2017-06-08T20:45:25.735Z,14.00
2017-06-08T20:47:58.507Z,13.80
2017-06-08T20:50:30.987Z,13.70
2017-06-08T20:53:04.427Z,13.60
2017-06-08T20:55:37.644Z,13.50
2017-06-08T20:58:10.050Z,13.40
2017-06-08T21:00:42.839Z,13.40
2017-06-08T21:03:15.860Z,13.40
2017-06-08T21:05:49.092Z,13.50
2017-06-08T21:08:21.829Z,13.50
2017-06-08T21:10:55.011Z,13.40
2017-06-08T21:13:27.414Z,13.50
2017-06-08T21:15:59.955Z,13.40
2017-06-08T21:18:32.456Z,13.30
2017-06-08T21:21:05.231Z,13.30
2017-06-08T21:23:37.613Z,13.40
2017-06-08T21:26:10.029Z,13.30
2017-06-08T21:28:42.583Z,13.30
2017-06-08T21:31:15.575Z,13.40
2017-06-08T21:33:48.824Z,13.40
2017-06-08T21:36:21.828Z,13.40
2017-06-08T21:38:55.300Z,13.40
2017-06-08T21:41:28.234Z,13.50
2017-06-08T21:44:01.826Z,13.40
2017-06-08T21:46:35.325Z,13.20
2017-06-08T21:49:07.901Z,13.10
2017-06-08T21:51:42.267Z,13.00
2017-06-08T21:54:15.271Z,13.00
2017-06-08T21:56:49.025Z,13.10
2017-06-08T21:59:21.462Z,13.10
2017-06-08T22:01:54.005Z,13.10
2017-06-08T22:04:26.493Z,13.10
2017-06-08T22:06:59.826Z,13.20
2017-06-08T22:09:32.630Z,13.00
2017-06-08T22:12:05.382Z,12.90
2017-06-08T22:14:37.918Z,13.00
2017-06-08T22:17:10.981Z,13.10
2017-06-08T22:19:43.503Z,13.00
2017-06-08T22:22:15.987Z,13.10
2017-06-08T22:24:48.623Z,13.20
2017-06-08T22:27:22.610Z,13.10
2017-06-08T22:29:55.697Z,13.00
2017-06-08T22:32:29.685Z,13.10
2017-06-08T22:35:02.535Z,13.10
2017-06-08T22:37:35.743Z,13.00
2017-06-08T22:40:08.608Z,13.00
2017-06-08T22:42:42.617Z,12.80
2017-06-08T22:45:14.988Z,12.80
2017-06-08T22:47:48.375Z,12.70
2017-06-08T22:50:20.770Z,12.70
2017-06-08T22:52:53.151Z,12.70
2017-06-08T22:55:25.966Z,12.60
2017-06-08T22:57:59.192Z,12.50
2017-06-08T23:00:33.097Z,12.60
2017-06-08T23:03:07.046Z,12.50
2017-06-08T23:05:41.415Z,12.70
2017-06-08T23:08:14.503Z,12.70
2017-06-08T23:10:47.716Z,13.00
2017-06-08T23:13:20.955Z,13.20
2017-06-08T23:15:53.927Z,13.30
2017-06-08T23:18:27.226Z,13.20
2017-06-08T23:21:00.060Z,13.10
2017-06-08T23:23:32.918Z,13.10
2017-06-08T23:26:06.126Z,13.20
2017-06-08T23:28:39.434Z,13.10
2017-06-08T23:31:12.524Z,13.00
2017-06-08T23:33:45.506Z,12.90
2017-06-08T23:36:18.548Z,12.80
2017-06-08T23:38:51.923Z,12.80
2017-06-08T23:41:24.899Z,12.90
2017-06-08T23:43:58.371Z,12.90
2017-06-08T23:46:31.283Z,12.90
2017-06-08T23:49:04.665Z,12.90
2017-06-08T23:51:38.015Z,12.80
2017-06-08T23:54:11.482Z,12.90
2017-06-08T23:56:44.699Z,12.90
2017-06-08T23:59:18.028Z,13.00
